Aérodrome :
LOGIN :

S'inscrire | Disclaimer

   EN    FR    IT 

 










Légende :    VFR   VFR Marginal   IFR   IFR Intensif   IFR Très Intensif
Visi : 
Plafond : 
>= 8 km
>= 3000ft
5 à 8 km
1000 à 3000 ft
1500m à 5 km
500 à 1000 ft
800 à 1500m
200 à 500 ft
< 800m
< 200 ft
Symboles :   Orages  Brouillard  Fortes neiges  Fortes précipitations  Vent > 20 kt
SIGMETs :   Divers  Orages  Givrage  Turbulence  Onde Orograph.  Cendres Volcan.







- Altitude de l'aérodrome : 616 ft
- Code IATA : PUF
- Voir les cartes d'approche


LFBP - Pau

DERNIER METAR :
  • 221500Z AUTO 24009KT 9999 FEW018/// SCT026/// BKN040/// ///CB 06/05 Q1010 TEMPO 3000 SHRA BKN010 BKN015TCU FEW020CB

METARs EXPIRÉS :
  • 221430Z AUTO 28011KT 250V310 9999 -RA SCT014/// BKN022/// BKN028/// ///CB 06/04 Q1010 TEMPO 3000 SHRA BKN010 BKN015TCU FEW020CB
  • 221400Z AUTO 24011KT 9999 FEW010/// BKN016/// BKN035/// ///CB 06/04 Q1010 TEMPO 3000 SHRA BKN010 BKN015TCU FEW020CB
  • 221330Z AUTO 25012KT 5000 RA BR FEW010/// BKN014/// BKN020/// ///CB 06/05 Q1010 NOSIG
  • 221300Z AUTO 25013KT 9999 -RA BKN014/// OVC021/// ///TCU 06/05 Q1010 TEMPO 28015G30KT 3000 SHRA BKN005 BKN015TCU FEW020CB
  • 221230Z AUTO 25015KT 9000 -RA FEW010/// BKN016/// OVC022/// ///TCU 06/05 Q1010 TEMPO 28015G30KT 3000 SHRA BKN005 BKN015TCU FEW020CB
  • 221200Z AUTO 21008KT 9999 -RA OVC024/// ///TCU 06/04 Q1011 TEMPO 28015G30KT 4000 RA

TAF AMD TAF LFBP
Valide du 22 à 13h jusqu'au 23 à 12h UTC


221343Z 2213/2312 24010KT 9999 BKN020
TEMPO 2213/2214 28015G30KT 4000 RA BKN010 FEW015CB BKN020TCU
TEMPO 2214/2312 3000 SHRA BKN010 BKN015TCU FEW020CB
Pas de NOTAMs connus pour ce terrain.



MET'MAP, la Météo Aéronautique d'un coup d'oeil ! - Copyright ORBIFLY Décembre 2007 - Disclaimer

ORBIFLY MET'MAP TEAM :

Programmation & Développement : Alexandra Zaïnal
Conception & Développement : Baudouin d'Aumeries
Co-Programmation & Développement : Marc-Olivier Méhu
Soutien technique & logistique : Manuel Goepfert

Contact : metmap@orbifly.com




SOURCES & CREDITS :

   NOAA